Airport View

Enter AWOS ICAO identifier for current METAR.

ex. KFNL

KDRO 200253Z AUTO 00000KT 10SM CLR 04/M09 A3014 RMK AO2 SLP209 T00441089 53014

20 Mar 2019 03:44

Frequency: 120.625

Phone: 970-259-3579

Other Area AWOS: KFMN - KPSO - KCEZ - KTEX

TAF KDRO 192322Z 2000/2024 28017G26KT P6SM FEW200 FM200200 30008KT P6SM FEW250 FM200400 VRB05KT P6SM FEW250 FM201800 11005KT P6SM FEW250